sensor_id;sensor_type;location;lat;lon;timestamp;P1;durP1;ratioP1;P2;durP2;ratioP2
38940;SDS011;43236;47.208;7.518;2022-11-23T00:02:37;5.95;;;0.90;;
38940;SDS011;43236;47.208;7.518;2022-11-23T00:05:25;4.53;;;0.93;;
38940;SDS011;43236;47.208;7.518;2022-11-23T00:08:13;7.95;;;1.05;;
38940;SDS011;43236;47.208;7.518;2022-11-23T00:11:00;6.35;;;1.20;;
38940;SDS011;43236;47.208;7.518;2022-11-23T00:13:47;3.83;;;1.10;;
38940;SDS011;43236;47.208;7.518;2022-11-23T00:16:34;5.20;;;1.20;;
38940;SDS011;43236;47.208;7.518;2022-11-23T00:19:23;2.80;;;0.98;;
38940;SDS011;43236;47.208;7.518;2022-11-23T00:22:10;8.23;;;1.00;;
38940;SDS011;43236;47.208;7.518;2022-11-23T00:24:57;5.13;;;0.93;;
38940;SDS011;43236;47.208;7.518;2022-11-23T00:27:44;7.03;;;1.10;;
38940;SDS011;43236;47.208;7.518;2022-11-23T00:30:31;4.57;;;1.27;;
38940;SDS011;43236;47.208;7.518;2022-11-23T00:33:18;4.75;;;1.42;;
38940;SDS011;43236;47.208;7.518;2022-11-23T00:36:07;5.22;;;0.98;;
38940;SDS011;43236;47.208;7.518;2022-11-23T00:38:57;4.32;;;1.02;;
38940;SDS011;43236;47.208;7.518;2022-11-23T00:41:44;2.33;;;0.90;;
38940;SDS011;43236;47.208;7.518;2022-11-23T00:44:31;5.43;;;1.30;;
38940;SDS011;43236;47.208;7.518;2022-11-23T00:47:18;3.33;;;1.02;;
38940;SDS011;43236;47.208;7.518;2022-11-23T00:50:05;5.00;;;1.27;;
38940;SDS011;43236;47.208;7.518;2022-11-23T00:52:55;5.47;;;1.40;;
38940;SDS011;43236;47.208;7.518;2022-11-23T00:55:49;3.72;;;1.20;;
38940;SDS011;43236;47.208;7.518;2022-11-23T00:58:36;5.28;;;1.40;;
38940;SDS011;43236;47.208;7.518;2022-11-23T01:01:24;4.68;;;1.23;;
38940;SDS011;43236;47.208;7.518;2022-11-23T01:04:13;3.78;;;1.40;;
38940;SDS011;43236;47.208;7.518;2022-11-23T01:07:00;8.57;;;1.55;;
38940;SDS011;43236;47.208;7.518;2022-11-23T01:09:49;5.90;;;1.60;;
38940;SDS011;43236;47.208;7.518;2022-11-23T01:12:36;7.95;;;1.30;;
38940;SDS011;43236;47.208;7.518;2022-11-23T01:15:23;3.03;;;1.15;;
38940;SDS011;43236;47.208;7.518;2022-11-23T01:18:10;6.90;;;1.30;;
38940;SDS011;43236;47.208;7.518;2022-11-23T01:20:57;5.45;;;1.65;;
38940;SDS011;43236;47.208;7.518;2022-11-23T01:23:46;6.28;;;1.40;;
38940;SDS011;43236;47.208;7.518;2022-11-23T01:26:34;5.25;;;1.48;;
38940;SDS011;43236;47.208;7.518;2022-11-23T01:29:21;6.65;;;1.42;;
38940;SDS011;43236;47.208;7.518;2022-11-23T01:32:09;6.38;;;1.90;;
38940;SDS011;43236;47.208;7.518;2022-11-23T01:34:56;6.18;;;1.60;;
38940;SDS011;43236;47.208;7.518;2022-11-23T01:37:43;4.55;;;1.67;;
38940;SDS011;43236;47.208;7.518;2022-11-23T01:40:30;4.38;;;1.80;;
38940;SDS011;43236;47.208;7.518;2022-11-23T01:43:26;8.13;;;1.90;;
38940;SDS011;43236;47.208;7.518;2022-11-23T01:46:13;4.05;;;1.73;;
38940;SDS011;43236;47.208;7.518;2022-11-23T01:49:01;5.13;;;1.50;;
38940;SDS011;43236;47.208;7.518;2022-11-23T01:51:51;4.38;;;1.58;;
38940;SDS011;43236;47.208;7.518;2022-11-23T01:54:42;5.68;;;1.70;;
38940;SDS011;43236;47.208;7.518;2022-11-23T01:57:33;3.97;;;1.52;;
38940;SDS011;43236;47.208;7.518;2022-11-23T02:00:27;3.17;;;1.70;;
38940;SDS011;43236;47.208;7.518;2022-11-23T02:03:14;5.25;;;1.60;;
38940;SDS011;43236;47.208;7.518;2022-11-23T02:06:03;3.72;;;1.45;;
38940;SDS011;43236;47.208;7.518;2022-11-23T02:08:55;4.30;;;1.60;;
38940;SDS011;43236;47.208;7.518;2022-11-23T02:11:42;3.47;;;1.65;;
38940;SDS011;43236;47.208;7.518;2022-11-23T02:14:30;5.50;;;1.58;;
38940;SDS011;43236;47.208;7.518;2022-11-23T02:17:18;4.28;;;1.52;;
38940;SDS011;43236;47.208;7.518;2022-11-23T02:20:07;5.40;;;1.92;;
38940;SDS011;43236;47.208;7.518;2022-11-23T02:22:58;6.97;;;1.90;;
38940;SDS011;43236;47.208;7.518;2022-11-23T02:25:58;7.53;;;1.80;;
38940;SDS011;43236;47.208;7.518;2022-11-23T02:28:48;4.50;;;1.70;;
38940;SDS011;43236;47.208;7.518;2022-11-23T02:31:39;4.43;;;1.52;;
38940;SDS011;43236;47.208;7.518;2022-11-23T02:34:26;6.13;;;1.67;;
38940;SDS011;43236;47.208;7.518;2022-11-23T02:37:13;5.68;;;1.50;;
38940;SDS011;43236;47.208;7.518;2022-11-23T02:40:01;8.30;;;1.63;;
38940;SDS011;43236;47.208;7.518;2022-11-23T02:42:56;3.55;;;1.45;;
38940;SDS011;43236;47.208;7.518;2022-11-23T02:45:45;7.68;;;1.48;;
38940;SDS011;43236;47.208;7.518;2022-11-23T02:48:35;3.42;;;1.35;;
38940;SDS011;43236;47.208;7.518;2022-11-23T02:51:22;3.33;;;1.50;;
38940;SDS011;43236;47.208;7.518;2022-11-23T02:54:09;2.78;;;1.40;;
38940;SDS011;43236;47.208;7.518;2022-11-23T02:56:56;5.20;;;1.83;;
38940;SDS011;43236;47.208;7.518;2022-11-23T02:59:44;2.80;;;1.33;;
38940;SDS011;43236;47.208;7.518;2022-11-23T03:02:31;4.45;;;1.60;;
38940;SDS011;43236;47.208;7.518;2022-11-23T03:05:18;3.42;;;1.45;;
38940;SDS011;43236;47.208;7.518;2022-11-23T03:08:06;4.57;;;1.90;;
38940;SDS011;43236;47.208;7.518;2022-11-23T03:10:53;7.03;;;1.70;;
38940;SDS011;43236;47.208;7.518;2022-11-23T03:13:40;3.00;;;1.63;;
38940;SDS011;43236;47.208;7.518;2022-11-23T03:16:29;3.97;;;1.58;;
38940;SDS011;43236;47.208;7.518;2022-11-23T03:19:17;4.22;;;1.50;;
38940;SDS011;43236;47.208;7.518;2022-11-23T03:22:04;3.72;;;1.50;;
38940;SDS011;43236;47.208;7.518;2022-11-23T03:24:51;4.35;;;1.63;;
38940;SDS011;43236;47.208;7.518;2022-11-23T03:27:38;7.38;;;1.70;;
38940;SDS011;43236;47.208;7.518;2022-11-23T03:30:25;4.00;;;1.70;;
38940;SDS011;43236;47.208;7.518;2022-11-23T03:33:14;5.93;;;1.70;;
38940;SDS011;43236;47.208;7.518;2022-11-23T03:36:01;2.90;;;1.42;;
38940;SDS011;43236;47.208;7.518;2022-11-23T03:38:48;6.38;;;1.95;;
38940;SDS011;43236;47.208;7.518;2022-11-23T03:41:35;3.03;;;1.48;;
38940;SDS011;43236;47.208;7.518;2022-11-23T03:44:22;2.92;;;1.52;;
38940;SDS011;43236;47.208;7.518;2022-11-23T03:47:09;4.00;;;1.90;;
38940;SDS011;43236;47.208;7.518;2022-11-23T03:49:58;5.72;;;2.50;;
38940;SDS011;43236;47.208;7.518;2022-11-23T03:52:47;4.25;;;2.20;;
38940;SDS011;43236;47.208;7.518;2022-11-23T03:55:34;4.93;;;2.00;;
38940;SDS011;43236;47.208;7.518;2022-11-23T03:58:21;10.35;;;2.40;;
38940;SDS011;43236;47.208;7.518;2022-11-23T04:01:08;6.20;;;2.45;;
38940;SDS011;43236;47.208;7.518;2022-11-23T04:03:55;9.02;;;2.28;;
38940;SDS011;43236;47.208;7.518;2022-11-23T04:06:43;5.82;;;2.60;;
38940;SDS011;43236;47.208;7.518;2022-11-23T04:09:30;3.88;;;2.28;;
38940;SDS011;43236;47.208;7.518;2022-11-23T04:12:17;6.57;;;2.33;;
38940;SDS011;43236;47.208;7.518;2022-11-23T04:15:04;5.97;;;2.60;;
38940;SDS011;43236;47.208;7.518;2022-11-23T04:17:52;4.57;;;2.20;;
38940;SDS011;43236;47.208;7.518;2022-11-23T04:20:40;6.70;;;2.30;;
38940;SDS011;43236;47.208;7.518;2022-11-23T04:23:28;8.45;;;2.70;;
38940;SDS011;43236;47.208;7.518;2022-11-23T04:26:15;5.65;;;2.75;;
38940;SDS011;43236;47.208;7.518;2022-11-23T04:29:02;7.05;;;2.88;;
38940;SDS011;43236;47.208;7.518;2022-11-23T04:31:49;5.88;;;2.70;;
38940;SDS011;43236;47.208;7.518;2022-11-23T04:34:36;5.35;;;2.42;;
38940;SDS011;43236;47.208;7.518;2022-11-23T04:37:23;7.47;;;3.28;;
38940;SDS011;43236;47.208;7.518;2022-11-23T04:40:12;8.57;;;2.78;;
38940;SDS011;43236;47.208;7.518;2022-11-23T04:42:59;5.70;;;2.78;;
38940;SDS011;43236;47.208;7.518;2022-11-23T04:45:46;8.10;;;2.97;;
38940;SDS011;43236;47.208;7.518;2022-11-23T04:48:33;9.30;;;3.35;;
38940;SDS011;43236;47.208;7.518;2022-11-23T04:51:20;7.75;;;2.92;;
38940;SDS011;43236;47.208;7.518;2022-11-23T04:54:07;5.93;;;2.67;;
38940;SDS011;43236;47.208;7.518;2022-11-23T04:56:56;7.30;;;3.05;;
38940;SDS011;43236;47.208;7.518;2022-11-23T04:59:43;7.20;;;2.85;;
38940;SDS011;43236;47.208;7.518;2022-11-23T05:02:30;6.88;;;3.15;;
38940;SDS011;43236;47.208;7.518;2022-11-23T05:05:17;5.65;;;2.80;;
38940;SDS011;43236;47.208;7.518;2022-11-23T05:08:04;7.45;;;2.63;;
38940;SDS011;43236;47.208;7.518;2022-11-23T05:10:51;5.40;;;2.45;;
38940;SDS011;43236;47.208;7.518;2022-11-23T05:13:40;11.45;;;2.88;;
38940;SDS011;43236;47.208;7.518;2022-11-23T05:16:27;7.10;;;2.83;;
38940;SDS011;43236;47.208;7.518;2022-11-23T05:19:14;13.85;;;4.15;;
38940;SDS011;43236;47.208;7.518;2022-11-23T05:22:01;13.88;;;3.80;;
38940;SDS011;43236;47.208;7.518;2022-11-23T05:24:48;9.63;;;3.60;;
38940;SDS011;43236;47.208;7.518;2022-11-23T05:27:35;11.63;;;3.85;;
38940;SDS011;43236;47.208;7.518;2022-11-23T05:30:23;13.60;;;4.57;;
38940;SDS011;43236;47.208;7.518;2022-11-23T05:33:11;13.80;;;5.07;;
38940;SDS011;43236;47.208;7.518;2022-11-23T05:35:58;15.73;;;5.30;;
38940;SDS011;43236;47.208;7.518;2022-11-23T05:38:45;15.35;;;4.38;;
38940;SDS011;43236;47.208;7.518;2022-11-23T05:41:32;21.73;;;8.02;;
38940;SDS011;43236;47.208;7.518;2022-11-23T05:44:19;21.42;;;9.95;;
38940;SDS011;43236;47.208;7.518;2022-11-23T05:47:07;11.52;;;4.80;;
38940;SDS011;43236;47.208;7.518;2022-11-23T05:49:56;7.55;;;2.67;;
38940;SDS011;43236;47.208;7.518;2022-11-23T05:52:43;11.18;;;2.53;;
38940;SDS011;43236;47.208;7.518;2022-11-23T05:55:31;7.25;;;2.67;;
38940;SDS011;43236;47.208;7.518;2022-11-23T05:58:18;5.35;;;2.53;;
38940;SDS011;43236;47.208;7.518;2022-11-23T06:01:05;8.52;;;2.67;;
38940;SDS011;43236;47.208;7.518;2022-11-23T06:03:53;7.85;;;3.50;;
38940;SDS011;43236;47.208;7.518;2022-11-23T06:06:40;10.38;;;4.20;;
38940;SDS011;43236;47.208;7.518;2022-11-23T06:09:27;6.20;;;3.08;;
38940;SDS011;43236;47.208;7.518;2022-11-23T06:12:14;10.02;;;2.42;;
38940;SDS011;43236;47.208;7.518;2022-11-23T06:15:02;8.05;;;2.50;;
38940;SDS011;43236;47.208;7.518;2022-11-23T06:17:49;6.60;;;2.60;;
38940;SDS011;43236;47.208;7.518;2022-11-23T06:20:38;5.20;;;2.45;;
38940;SDS011;43236;47.208;7.518;2022-11-23T06:23:25;6.38;;;2.92;;
38940;SDS011;43236;47.208;7.518;2022-11-23T06:26:12;8.05;;;3.33;;
38940;SDS011;43236;47.208;7.518;2022-11-23T06:28:59;10.90;;;3.38;;
38940;SDS011;43236;47.208;7.518;2022-11-23T06:31:46;11.15;;;3.20;;
38940;SDS011;43236;47.208;7.518;2022-11-23T06:34:33;6.03;;;2.58;;
38940;SDS011;43236;47.208;7.518;2022-11-23T06:37:22;5.82;;;2.72;;
38940;SDS011;43236;47.208;7.518;2022-11-23T06:40:09;11.75;;;3.28;;
38940;SDS011;43236;47.208;7.518;2022-11-23T06:42:57;5.47;;;2.65;;
38940;SDS011;43236;47.208;7.518;2022-11-23T06:45:45;5.00;;;2.40;;
38940;SDS011;43236;47.208;7.518;2022-11-23T06:48:32;5.65;;;2.13;;
38940;SDS011;43236;47.208;7.518;2022-11-23T06:51:21;12.45;;;3.25;;
38940;SDS011;43236;47.208;7.518;2022-11-23T06:54:09;12.88;;;3.85;;
38940;SDS011;43236;47.208;7.518;2022-11-23T06:56:56;8.68;;;2.83;;
38940;SDS011;43236;47.208;7.518;2022-11-23T06:59:43;7.97;;;2.67;;
38940;SDS011;43236;47.208;7.518;2022-11-23T07:02:31;8.07;;;2.55;;
38940;SDS011;43236;47.208;7.518;2022-11-23T07:05:18;5.53;;;2.17;;
38940;SDS011;43236;47.208;7.518;2022-11-23T07:08:05;4.90;;;2.20;;
38940;SDS011;43236;47.208;7.518;2022-11-23T07:10:54;5.53;;;2.22;;
38940;SDS011;43236;47.208;7.518;2022-11-23T07:13:45;5.18;;;2.50;;
38940;SDS011;43236;47.208;7.518;2022-11-23T07:16:33;6.20;;;2.17;;
38940;SDS011;43236;47.208;7.518;2022-11-23T07:19:20;8.07;;;2.28;;
38940;SDS011;43236;47.208;7.518;2022-11-23T07:22:07;5.97;;;2.22;;
38940;SDS011;43236;47.208;7.518;2022-11-23T07:24:54;7.43;;;2.17;;
38940;SDS011;43236;47.208;7.518;2022-11-23T07:27:42;4.18;;;2.22;;
38940;SDS011;43236;47.208;7.518;2022-11-23T07:30:30;4.75;;;1.90;;
38940;SDS011;43236;47.208;7.518;2022-11-23T07:33:18;5.07;;;2.03;;
38940;SDS011;43236;47.208;7.518;2022-11-23T07:36:05;5.80;;;1.98;;
38940;SDS011;43236;47.208;7.518;2022-11-23T07:38:53;5.85;;;1.70;;
38940;SDS011;43236;47.208;7.518;2022-11-23T07:41:40;8.98;;;1.90;;
38940;SDS011;43236;47.208;7.518;2022-11-23T07:44:28;7.70;;;2.05;;
38940;SDS011;43236;47.208;7.518;2022-11-23T07:47:16;6.50;;;2.17;;
38940;SDS011;43236;47.208;7.518;2022-11-23T07:50:03;6.38;;;1.95;;
38940;SDS011;43236;47.208;7.518;2022-11-23T07:52:51;5.93;;;1.80;;
38940;SDS011;43236;47.208;7.518;2022-11-23T07:55:38;7.63;;;1.98;;
38940;SDS011;43236;47.208;7.518;2022-11-23T07:58:25;6.28;;;1.90;;
38940;SDS011;43236;47.208;7.518;2022-11-23T08:01:14;6.47;;;1.60;;
38940;SDS011;43236;47.208;7.518;2022-11-23T08:04:02;9.88;;;1.80;;
38940;SDS011;43236;47.208;7.518;2022-11-23T08:06:50;4.00;;;1.80;;
38940;SDS011;43236;47.208;7.518;2022-11-23T08:09:38;4.65;;;1.58;;
38940;SDS011;43236;47.208;7.518;2022-11-23T08:12:25;7.05;;;1.70;;
38940;SDS011;43236;47.208;7.518;2022-11-23T08:15:12;8.55;;;1.95;;
38940;SDS011;43236;47.208;7.518;2022-11-23T08:18:01;4.22;;;1.80;;
38940;SDS011;43236;47.208;7.518;2022-11-23T08:20:49;6.47;;;1.90;;
38940;SDS011;43236;47.208;7.518;2022-11-23T08:23:36;5.25;;;1.80;;
38940;SDS011;43236;47.208;7.518;2022-11-23T08:26:23;4.70;;;1.70;;
38940;SDS011;43236;47.208;7.518;2022-11-23T08:29:10;6.15;;;1.70;;
38940;SDS011;43236;47.208;7.518;2022-11-23T08:31:57;6.57;;;1.67;;
38940;SDS011;43236;47.208;7.518;2022-11-23T08:34:46;4.60;;;1.90;;
38940;SDS011;43236;47.208;7.518;2022-11-23T08:37:33;3.05;;;1.80;;
38940;SDS011;43236;47.208;7.518;2022-11-23T08:40:20;5.00;;;1.80;;
38940;SDS011;43236;47.208;7.518;2022-11-23T08:43:07;4.13;;;1.75;;
38940;SDS011;43236;47.208;7.518;2022-11-23T08:45:54;5.72;;;1.70;;
38940;SDS011;43236;47.208;7.518;2022-11-23T08:48:42;6.63;;;1.95;;
38940;SDS011;43236;47.208;7.518;2022-11-23T08:51:30;5.30;;;1.95;;
38940;SDS011;43236;47.208;7.518;2022-11-23T08:54:17;3.15;;;1.50;;
38940;SDS011;43236;47.208;7.518;2022-11-23T08:57:04;3.97;;;2.10;;
38940;SDS011;43236;47.208;7.518;2022-11-23T08:59:51;4.65;;;1.63;;
38940;SDS011;43236;47.208;7.518;2022-11-23T09:02:38;5.82;;;1.88;;
38940;SDS011;43236;47.208;7.518;2022-11-23T09:05:26;7.20;;;2.10;;
38940;SDS011;43236;47.208;7.518;2022-11-23T09:08:14;3.88;;;1.67;;
38940;SDS011;43236;47.208;7.518;2022-11-23T09:11:02;4.70;;;1.77;;
38940;SDS011;43236;47.208;7.518;2022-11-23T09:13:51;8.35;;;2.00;;
38940;SDS011;43236;47.208;7.518;2022-11-23T09:16:38;5.38;;;2.50;;
38940;SDS011;43236;47.208;7.518;2022-11-23T09:19:25;5.20;;;2.17;;
38940;SDS011;43236;47.208;7.518;2022-11-23T09:22:12;5.82;;;2.58;;
38940;SDS011;43236;47.208;7.518;2022-11-23T09:25:01;7.25;;;2.17;;
38940;SDS011;43236;47.208;7.518;2022-11-23T09:27:48;4.28;;;2.15;;
38940;SDS011;43236;47.208;7.518;2022-11-23T09:30:41;3.92;;;1.60;;
38940;SDS011;43236;47.208;7.518;2022-11-23T09:33:28;5.25;;;2.25;;
38940;SDS011;43236;47.208;7.518;2022-11-23T09:36:15;4.50;;;2.20;;
38940;SDS011;43236;47.208;7.518;2022-11-23T09:39:03;7.25;;;2.05;;
38940;SDS011;43236;47.208;7.518;2022-11-23T09:41:55;5.07;;;1.88;;
38940;SDS011;43236;47.208;7.518;2022-11-23T09:45:07;4.00;;;1.85;;
38940;SDS011;43236;47.208;7.518;2022-11-23T09:48:13;4.30;;;2.00;;
38940;SDS011;43236;47.208;7.518;2022-11-23T09:51:10;6.00;;;1.92;;
38940;SDS011;43236;47.208;7.518;2022-11-23T09:54:01;9.43;;;2.70;;
38940;SDS011;43236;47.208;7.518;2022-11-23T09:56:51;4.78;;;1.77;;
38940;SDS011;43236;47.208;7.518;2022-11-23T09:59:42;3.42;;;1.70;;
38940;SDS011;43236;47.208;7.518;2022-11-23T10:02:35;7.10;;;2.08;;
38940;SDS011;43236;47.208;7.518;2022-11-23T10:05:25;7.28;;;2.40;;
38940;SDS011;43236;47.208;7.518;2022-11-23T10:08:18;5.78;;;2.42;;
38940;SDS011;43236;47.208;7.518;2022-11-23T10:11:20;5.90;;;2.13;;
38940;SDS011;43236;47.208;7.518;2022-11-23T10:14:26;4.85;;;2.17;;
38940;SDS011;43236;47.208;7.518;2022-11-23T10:17:28;8.38;;;2.65;;
38940;SDS011;43236;47.208;7.518;2022-11-23T10:23:52;4.75;;;2.67;;
38940;SDS011;43236;47.208;7.518;2022-11-23T10:26:50;9.15;;;2.88;;
38940;SDS011;43236;47.208;7.518;2022-11-23T10:29:39;6.82;;;2.78;;
38940;SDS011;43236;47.208;7.518;2022-11-23T10:32:29;6.97;;;2.63;;
38940;SDS011;43236;47.208;7.518;2022-11-23T10:35:22;10.27;;;3.05;;
38940;SDS011;43236;47.208;7.518;2022-11-23T10:38:14;8.02;;;3.05;;
38940;SDS011;43236;47.208;7.518;2022-11-23T10:41:04;8.60;;;2.78;;
38940;SDS011;43236;47.208;7.518;2022-11-23T10:43:54;9.05;;;3.40;;
38940;SDS011;43236;47.208;7.518;2022-11-23T10:46:48;6.80;;;3.20;;
38940;SDS011;43236;47.208;7.518;2022-11-23T10:49:35;8.40;;;3.50;;
38940;SDS011;43236;47.208;7.518;2022-11-23T10:52:24;7.88;;;3.13;;
38940;SDS011;43236;47.208;7.518;2022-11-23T10:55:14;9.10;;;3.25;;
38940;SDS011;43236;47.208;7.518;2022-11-23T10:58:03;8.70;;;2.50;;
38940;SDS011;43236;47.208;7.518;2022-11-23T11:00:57;5.03;;;2.25;;
38940;SDS011;43236;47.208;7.518;2022-11-23T11:03:47;6.43;;;2.38;;
38940;SDS011;43236;47.208;7.518;2022-11-23T11:06:34;5.47;;;2.05;;
38940;SDS011;43236;47.208;7.518;2022-11-23T11:09:21;3.67;;;1.60;;
38940;SDS011;43236;47.208;7.518;2022-11-23T11:12:13;9.32;;;2.30;;
38940;SDS011;43236;47.208;7.518;2022-11-23T11:15:11;4.45;;;1.52;;
38940;SDS011;43236;47.208;7.518;2022-11-23T11:18:02;5.78;;;1.90;;
38940;SDS011;43236;47.208;7.518;2022-11-23T11:20:51;4.85;;;1.60;;
38940;SDS011;43236;47.208;7.518;2022-11-23T11:23:42;4.38;;;1.77;;
38940;SDS011;43236;47.208;7.518;2022-11-23T11:26:36;3.70;;;1.50;;
38940;SDS011;43236;47.208;7.518;2022-11-23T11:29:36;4.60;;;1.60;;
38940;SDS011;43236;47.208;7.518;2022-11-23T11:32:34;2.78;;;1.40;;
38940;SDS011;43236;47.208;7.518;2022-11-23T11:35:27;5.40;;;1.45;;
38940;SDS011;43236;47.208;7.518;2022-11-23T11:38:19;6.53;;;1.33;;
38940;SDS011;43236;47.208;7.518;2022-11-23T11:41:12;6.65;;;1.35;;
38940;SDS011;43236;47.208;7.518;2022-11-23T11:44:01;8.52;;;1.50;;
38940;SDS011;43236;47.208;7.518;2022-11-23T11:46:56;7.05;;;1.60;;
38940;SDS011;43236;47.208;7.518;2022-11-23T11:49:46;6.03;;;1.33;;
38940;SDS011;43236;47.208;7.518;2022-11-23T11:52:36;5.32;;;1.45;;
38940;SDS011;43236;47.208;7.518;2022-11-23T11:55:27;4.85;;;1.25;;
38940;SDS011;43236;47.208;7.518;2022-11-23T11:58:21;7.00;;;1.15;;
38940;SDS011;43236;47.208;7.518;2022-11-23T12:01:12;2.67;;;0.80;;
38940;SDS011;43236;47.208;7.518;2022-11-23T12:04:15;1.98;;;1.00;;
38940;SDS011;43236;47.208;7.518;2022-11-23T12:07:07;2.10;;;0.70;;
38940;SDS011;43236;47.208;7.518;2022-11-23T12:10:03;2.45;;;0.75;;
38940;SDS011;43236;47.208;7.518;2022-11-23T12:15:44;3.08;;;1.08;;
38940;SDS011;43236;47.208;7.518;2022-11-23T12:18:36;8.38;;;1.15;;
38940;SDS011;43236;47.208;7.518;2022-11-23T12:21:41;2.38;;;1.10;;
38940;SDS011;43236;47.208;7.518;2022-11-23T12:24:45;3.63;;;0.90;;
38940;SDS011;43236;47.208;7.518;2022-11-23T12:27:47;4.43;;;1.08;;
38940;SDS011;43236;47.208;7.518;2022-11-23T12:30:45;5.13;;;1.20;;
38940;SDS011;43236;47.208;7.518;2022-11-23T12:33:43;3.40;;;0.77;;
38940;SDS011;43236;47.208;7.518;2022-11-23T12:36:44;3.20;;;1.10;;
38940;SDS011;43236;47.208;7.518;2022-11-23T12:39:53;4.13;;;1.13;;
38940;SDS011;43236;47.208;7.518;2022-11-23T12:43:04;3.83;;;1.13;;
38940;SDS011;43236;47.208;7.518;2022-11-23T12:46:08;2.65;;;0.88;;
38940;SDS011;43236;47.208;7.518;2022-11-23T12:49:01;2.58;;;0.90;;
38940;SDS011;43236;47.208;7.518;2022-11-23T12:51:59;2.88;;;0.93;;
38940;SDS011;43236;47.208;7.518;2022-11-23T12:54:55;5.70;;;1.02;;
38940;SDS011;43236;47.208;7.518;2022-11-23T12:57:50;1.20;;;0.77;;
38940;SDS011;43236;47.208;7.518;2022-11-23T13:00:44;3.42;;;1.40;;
38940;SDS011;43236;47.208;7.518;2022-11-23T13:10:27;2.67;;;1.02;;
38940;SDS011;43236;47.208;7.518;2022-11-23T13:13:35;4.20;;;1.02;;
38940;SDS011;43236;47.208;7.518;2022-11-23T13:16:51;4.30;;;1.10;;
38940;SDS011;43236;47.208;7.518;2022-11-23T13:20:02;4.47;;;1.00;;
38940;SDS011;43236;47.208;7.518;2022-11-23T13:23:12;8.18;;;1.40;;
38940;SDS011;43236;47.208;7.518;2022-11-23T13:29:40;3.90;;;1.15;;
38940;SDS011;43236;47.208;7.518;2022-11-23T13:32:32;3.45;;;1.20;;
38940;SDS011;43236;47.208;7.518;2022-11-23T13:38:48;3.30;;;1.10;;
38940;SDS011;43236;47.208;7.518;2022-11-23T13:44:45;3.67;;;1.23;;
38940;SDS011;43236;47.208;7.518;2022-11-23T13:47:32;2.03;;;1.00;;
38940;SDS011;43236;47.208;7.518;2022-11-23T13:50:20;3.13;;;1.10;;
38940;SDS011;43236;47.208;7.518;2022-11-23T13:53:17;3.60;;;1.08;;
38940;SDS011;43236;47.208;7.518;2022-11-23T13:56:20;3.47;;;0.90;;
38940;SDS011;43236;47.208;7.518;2022-11-23T13:59:28;4.47;;;1.27;;
38940;SDS011;43236;47.208;7.518;2022-11-23T14:08:37;4.70;;;1.30;;
38940;SDS011;43236;47.208;7.518;2022-11-23T14:11:27;3.63;;;1.17;;
38940;SDS011;43236;47.208;7.518;2022-11-23T14:14:20;3.40;;;1.23;;
38940;SDS011;43236;47.208;7.518;2022-11-23T14:20:29;5.35;;;1.50;;
38940;SDS011;43236;47.208;7.518;2022-11-23T14:27:14;4.20;;;1.20;;
38940;SDS011;43236;47.208;7.518;2022-11-23T14:33:28;2.38;;;1.10;;
38940;SDS011;43236;47.208;7.518;2022-11-23T14:36:24;5.18;;;1.58;;
38940;SDS011;43236;47.208;7.518;2022-11-23T14:39:38;4.18;;;1.13;;
38940;SDS011;43236;47.208;7.518;2022-11-23T14:42:55;3.28;;;1.13;;
38940;SDS011;43236;47.208;7.518;2022-11-23T14:45:43;5.15;;;1.50;;
38940;SDS011;43236;47.208;7.518;2022-11-23T14:48:31;5.22;;;1.65;;
38940;SDS011;43236;47.208;7.518;2022-11-23T14:51:19;4.60;;;1.60;;
38940;SDS011;43236;47.208;7.518;2022-11-23T14:54:10;9.98;;;2.30;;
38940;SDS011;43236;47.208;7.518;2022-11-23T14:57:01;4.10;;;1.70;;
38940;SDS011;43236;47.208;7.518;2022-11-23T14:59:52;7.75;;;1.98;;
38940;SDS011;43236;47.208;7.518;2022-11-23T15:02:43;4.30;;;1.70;;
38940;SDS011;43236;47.208;7.518;2022-11-23T15:05:30;4.30;;;1.67;;
38940;SDS011;43236;47.208;7.518;2022-11-23T15:08:20;4.97;;;1.77;;
38940;SDS011;43236;47.208;7.518;2022-11-23T15:11:10;5.93;;;1.95;;
38940;SDS011;43236;47.208;7.518;2022-11-23T15:14:00;5.63;;;2.10;;
38940;SDS011;43236;47.208;7.518;2022-11-23T15:16:51;6.07;;;2.80;;
38940;SDS011;43236;47.208;7.518;2022-11-23T15:19:38;5.05;;;1.92;;
38940;SDS011;43236;47.208;7.518;2022-11-23T15:22:26;6.07;;;2.35;;
38940;SDS011;43236;47.208;7.518;2022-11-23T15:25:16;5.00;;;2.00;;
38940;SDS011;43236;47.208;7.518;2022-11-23T15:28:10;6.63;;;2.13;;
38940;SDS011;43236;47.208;7.518;2022-11-23T15:31:15;5.63;;;1.98;;
38940;SDS011;43236;47.208;7.518;2022-11-23T15:34:05;8.02;;;1.75;;
38940;SDS011;43236;47.208;7.518;2022-11-23T15:36:58;6.25;;;2.10;;
38940;SDS011;43236;47.208;7.518;2022-11-23T15:39:46;5.93;;;2.10;;
38940;SDS011;43236;47.208;7.518;2022-11-23T15:42:34;8.73;;;2.20;;
38940;SDS011;43236;47.208;7.518;2022-11-23T15:45:36;5.95;;;1.92;;
38940;SDS011;43236;47.208;7.518;2022-11-23T15:48:28;3.95;;;1.52;;
38940;SDS011;43236;47.208;7.518;2022-11-23T15:51:22;5.07;;;1.33;;
38940;SDS011;43236;47.208;7.518;2022-11-23T15:54:13;5.15;;;1.50;;
38940;SDS011;43236;47.208;7.518;2022-11-23T15:57:05;3.97;;;1.40;;
38940;SDS011;43236;47.208;7.518;2022-11-23T15:59:55;3.80;;;1.13;;
38940;SDS011;43236;47.208;7.518;2022-11-23T16:02:44;6.30;;;1.98;;
38940;SDS011;43236;47.208;7.518;2022-11-23T16:05:31;6.90;;;1.95;;
38940;SDS011;43236;47.208;7.518;2022-11-23T16:08:23;3.63;;;1.67;;
38940;SDS011;43236;47.208;7.518;2022-11-23T16:11:27;4.43;;;1.90;;
38940;SDS011;43236;47.208;7.518;2022-11-23T16:14:17;7.32;;;1.70;;
38940;SDS011;43236;47.208;7.518;2022-11-23T16:17:11;5.93;;;1.42;;
38940;SDS011;43236;47.208;7.518;2022-11-23T16:20:02;5.70;;;2.00;;
38940;SDS011;43236;47.208;7.518;2022-11-23T16:22:58;5.22;;;1.70;;
38940;SDS011;43236;47.208;7.518;2022-11-23T16:25:52;5.40;;;1.67;;
38940;SDS011;43236;47.208;7.518;2022-11-23T16:28:47;6.47;;;1.92;;
38940;SDS011;43236;47.208;7.518;2022-11-23T16:31:36;5.60;;;2.35;;
38940;SDS011;43236;47.208;7.518;2022-11-23T16:34:25;5.57;;;1.60;;
38940;SDS011;43236;47.208;7.518;2022-11-23T16:37:12;6.32;;;2.00;;
38940;SDS011;43236;47.208;7.518;2022-11-23T16:39:59;7.75;;;2.08;;
38940;SDS011;43236;47.208;7.518;2022-11-23T16:42:48;4.85;;;2.15;;
38940;SDS011;43236;47.208;7.518;2022-11-23T16:45:38;9.02;;;2.08;;
38940;SDS011;43236;47.208;7.518;2022-11-23T16:48:35;5.95;;;1.95;;
38940;SDS011;43236;47.208;7.518;2022-11-23T16:51:24;8.32;;;2.00;;
38940;SDS011;43236;47.208;7.518;2022-11-23T16:54:11;6.15;;;2.15;;
38940;SDS011;43236;47.208;7.518;2022-11-23T16:56:58;4.70;;;1.95;;
38940;SDS011;43236;47.208;7.518;2022-11-23T16:59:47;3.58;;;1.75;;
38940;SDS011;43236;47.208;7.518;2022-11-23T17:02:34;4.35;;;2.03;;
38940;SDS011;43236;47.208;7.518;2022-11-23T17:05:21;4.78;;;1.83;;
38940;SDS011;43236;47.208;7.518;2022-11-23T17:08:09;7.50;;;2.47;;
38940;SDS011;43236;47.208;7.518;2022-11-23T17:10:56;6.15;;;1.90;;
38940;SDS011;43236;47.208;7.518;2022-11-23T17:13:43;2.95;;;1.35;;
38940;SDS011;43236;47.208;7.518;2022-11-23T17:16:33;4.15;;;1.40;;
38940;SDS011;43236;47.208;7.518;2022-11-23T17:19:20;4.63;;;1.70;;
38940;SDS011;43236;47.208;7.518;2022-11-23T17:22:07;3.03;;;1.35;;
38940;SDS011;43236;47.208;7.518;2022-11-23T17:24:54;4.90;;;1.95;;
38940;SDS011;43236;47.208;7.518;2022-11-23T17:27:41;4.47;;;1.95;;
38940;SDS011;43236;47.208;7.518;2022-11-23T17:30:31;7.03;;;2.22;;
38940;SDS011;43236;47.208;7.518;2022-11-23T17:33:19;8.35;;;3.97;;
38940;SDS011;43236;47.208;7.518;2022-11-23T17:36:07;9.65;;;4.30;;
38940;SDS011;43236;47.208;7.518;2022-11-23T17:38:55;6.78;;;3.47;;
38940;SDS011;43236;47.208;7.518;2022-11-23T17:41:42;9.85;;;3.08;;
38940;SDS011;43236;47.208;7.518;2022-11-23T17:44:29;9.52;;;3.08;;
38940;SDS011;43236;47.208;7.518;2022-11-23T17:47:23;8.05;;;3.13;;